Terminal Aerodrome Forecast
Issued by NWS

Home | Current Version | Previous Version | Text Only | Print | Product List | Glossary On
Versions: 1 2 3 4 5 6 7 8 9 10 11 12 13 14
412
FTUS46 KMTR 201124
TAFMRY
TAF
KMRY 201124Z 2012/2112 15010G15KT P6SM -RA SCT030 OVC050
     FM201300 19020G30KT 4SM RA BKN020 OVC030
      TEMPO 2013/2015 2SM +RA OVC015
     FM201500 24014G19KT 6SM SHRA OVC015
     FM202100 27013G24KT 6SM SHRA SCT020 OVC050
     FM210400 28013KT P6SM VCSH OVC025=

USA.gov is the U.S. government's official web portal to all federal, state and local government web resources and services.